sensor_id;sensor_type;location;lat;lon;timestamp;temperature;humidity
2174;DHT22;1093;51.424;11.764;2023-04-15T00:00:58;8.30;1.40
2174;DHT22;1093;51.424;11.764;2023-04-15T00:03:24;8.40;1.40
2174;DHT22;1093;51.424;11.764;2023-04-15T00:05:51;8.40;1.40
2174;DHT22;1093;51.424;11.764;2023-04-15T00:08:18;8.40;1.40
2174;DHT22;1093;51.424;11.764;2023-04-15T00:10:45;8.40;1.40
2174;DHT22;1093;51.424;11.764;2023-04-15T00:13:12;8.40;1.40
2174;DHT22;1093;51.424;11.764;2023-04-15T00:15:39;8.40;1.40
2174;DHT22;1093;51.424;11.764;2023-04-15T00:18:08;8.30;1.40
2174;DHT22;1093;51.424;11.764;2023-04-15T00:20:35;8.30;1.40
2174;DHT22;1093;51.424;11.764;2023-04-15T00:23:02;8.30;1.40
2174;DHT22;1093;51.424;11.764;2023-04-15T00:25:30;8.30;1.40
2174;DHT22;1093;51.424;11.764;2023-04-15T00:27:56;8.30;1.40
2174;DHT22;1093;51.424;11.764;2023-04-15T00:30:23;8.30;1.40
2174;DHT22;1093;51.424;11.764;2023-04-15T00:32:51;8.30;1.40
2174;DHT22;1093;51.424;11.764;2023-04-15T00:35:19;8.30;1.40
2174;DHT22;1093;51.424;11.764;2023-04-15T00:37:46;8.30;1.40
2174;DHT22;1093;51.424;11.764;2023-04-15T00:40:13;8.30;1.40
2174;DHT22;1093;51.424;11.764;2023-04-15T00:42:43;8.30;1.40
2174;DHT22;1093;51.424;11.764;2023-04-15T00:45:10;8.30;1.40
2174;DHT22;1093;51.424;11.764;2023-04-15T00:47:38;8.20;1.40
2174;DHT22;1093;51.424;11.764;2023-04-15T00:50:07;8.20;1.40
2174;DHT22;1093;51.424;11.764;2023-04-15T00:52:36;8.20;1.40
2174;DHT22;1093;51.424;11.764;2023-04-15T00:55:03;8.20;1.40
2174;DHT22;1093;51.424;11.764;2023-04-15T00:57:31;8.20;1.40
2174;DHT22;1093;51.424;11.764;2023-04-15T00:59:58;8.20;1.40
2174;DHT22;1093;51.424;11.764;2023-04-15T01:02:26;8.20;1.40
2174;DHT22;1093;51.424;11.764;2023-04-15T01:04:53;8.30;1.40
2174;DHT22;1093;51.424;11.764;2023-04-15T01:07:20;8.20;1.40
2174;DHT22;1093;51.424;11.764;2023-04-15T01:09:48;8.20;1.40
2174;DHT22;1093;51.424;11.764;2023-04-15T01:12:15;8.20;1.40
2174;DHT22;1093;51.424;11.764;2023-04-15T01:14:42;8.20;1.40
2174;DHT22;1093;51.424;11.764;2023-04-15T01:17:09;8.20;1.40
2174;DHT22;1093;51.424;11.764;2023-04-15T01:19:37;8.10;1.40
2174;DHT22;1093;51.424;11.764;2023-04-15T01:22:04;8.10;1.40
2174;DHT22;1093;51.424;11.764;2023-04-15T01:24:31;8.10;1.40
2174;DHT22;1093;51.424;11.764;2023-04-15T01:27:00;8.10;1.40
2174;DHT22;1093;51.424;11.764;2023-04-15T01:29:27;8.10;1.40
2174;DHT22;1093;51.424;11.764;2023-04-15T01:31:55;8.10;1.40
2174;DHT22;1093;51.424;11.764;2023-04-15T01:34:22;8.10;1.40
2174;DHT22;1093;51.424;11.764;2023-04-15T01:36:50;8.10;1.40
2174;DHT22;1093;51.424;11.764;2023-04-15T01:39:17;8.10;1.40
2174;DHT22;1093;51.424;11.764;2023-04-15T01:41:44;8.20;1.40
2174;DHT22;1093;51.424;11.764;2023-04-15T01:44:12;8.20;1.40
2174;DHT22;1093;51.424;11.764;2023-04-15T01:46:39;8.20;1.40
2174;DHT22;1093;51.424;11.764;2023-04-15T01:49:06;8.20;1.40
2174;DHT22;1093;51.424;11.764;2023-04-15T01:51:36;8.20;1.40
2174;DHT22;1093;51.424;11.764;2023-04-15T01:54:03;8.10;1.40
2174;DHT22;1093;51.424;11.764;2023-04-15T01:56:30;8.10;1.40
2174;DHT22;1093;51.424;11.764;2023-04-15T01:58:57;8.20;1.40
2174;DHT22;1093;51.424;11.764;2023-04-15T02:01:26;8.10;1.40
2174;DHT22;1093;51.424;11.764;2023-04-15T02:03:53;8.00;1.40
2174;DHT22;1093;51.424;11.764;2023-04-15T02:06:19;8.10;1.40
2174;DHT22;1093;51.424;11.764;2023-04-15T02:08:46;8.10;1.40
2174;DHT22;1093;51.424;11.764;2023-04-15T02:11:13;8.10;1.40
2174;DHT22;1093;51.424;11.764;2023-04-15T02:13:39;8.00;1.40
2174;DHT22;1093;51.424;11.764;2023-04-15T02:16:14;8.00;1.40
2174;DHT22;1093;51.424;11.764;2023-04-15T02:18:43;8.00;1.40
2174;DHT22;1093;51.424;11.764;2023-04-15T02:21:10;8.00;1.40
2174;DHT22;1093;51.424;11.764;2023-04-15T02:23:37;8.00;1.40
2174;DHT22;1093;51.424;11.764;2023-04-15T02:26:04;7.90;1.40
2174;DHT22;1093;51.424;11.764;2023-04-15T02:28:31;8.00;1.40
2174;DHT22;1093;51.424;11.764;2023-04-15T02:30:57;7.90;1.40
2174;DHT22;1093;51.424;11.764;2023-04-15T02:33:24;7.90;1.40
2174;DHT22;1093;51.424;11.764;2023-04-15T02:35:52;7.90;1.40
2174;DHT22;1093;51.424;11.764;2023-04-15T02:38:19;7.90;1.40
2174;DHT22;1093;51.424;11.764;2023-04-15T02:40:46;8.00;1.40
2174;DHT22;1093;51.424;11.764;2023-04-15T02:43:14;8.00;1.40
2174;DHT22;1093;51.424;11.764;2023-04-15T02:45:41;8.00;1.40
2174;DHT22;1093;51.424;11.764;2023-04-15T02:48:08;7.90;1.40
2174;DHT22;1093;51.424;11.764;2023-04-15T02:50:35;7.90;1.40
2174;DHT22;1093;51.424;11.764;2023-04-15T02:53:05;7.90;1.40
2174;DHT22;1093;51.424;11.764;2023-04-15T02:55:32;7.90;1.40
2174;DHT22;1093;51.424;11.764;2023-04-15T02:57:59;7.90;1.40
2174;DHT22;1093;51.424;11.764;2023-04-15T03:03:04;8.00;1.40
2174;DHT22;1093;51.424;11.764;2023-04-15T03:05:31;8.00;1.40
2174;DHT22;1093;51.424;11.764;2023-04-15T03:07:58;7.90;1.40
2174;DHT22;1093;51.424;11.764;2023-04-15T03:10:27;8.00;1.40
2174;DHT22;1093;51.424;11.764;2023-04-15T03:12:54;8.00;1.40
2174;DHT22;1093;51.424;11.764;2023-04-15T03:15:21;8.00;1.40
2174;DHT22;1093;51.424;11.764;2023-04-15T03:17:47;8.00;1.40
2174;DHT22;1093;51.424;11.764;2023-04-15T03:20:15;8.00;1.40
2174;DHT22;1093;51.424;11.764;2023-04-15T03:22:41;8.00;1.40
2174;DHT22;1093;51.424;11.764;2023-04-15T03:25:08;8.00;1.40
2174;DHT22;1093;51.424;11.764;2023-04-15T03:27:37;7.90;1.40
2174;DHT22;1093;51.424;11.764;2023-04-15T03:30:04;8.00;1.40
2174;DHT22;1093;51.424;11.764;2023-04-15T03:32:32;8.00;1.40
2174;DHT22;1093;51.424;11.764;2023-04-15T03:34:58;8.00;1.40
2174;DHT22;1093;51.424;11.764;2023-04-15T03:37:25;8.00;1.40
2174;DHT22;1093;51.424;11.764;2023-04-15T03:39:52;8.00;1.40
2174;DHT22;1093;51.424;11.764;2023-04-15T03:42:18;8.00;1.40
2174;DHT22;1093;51.424;11.764;2023-04-15T03:44:46;8.00;1.40
2174;DHT22;1093;51.424;11.764;2023-04-15T03:47:13;8.00;1.40
2174;DHT22;1093;51.424;11.764;2023-04-15T03:49:40;8.00;1.40
2174;DHT22;1093;51.424;11.764;2023-04-15T03:52:06;7.90;1.40
2174;DHT22;1093;51.424;11.764;2023-04-15T03:54:33;7.90;1.40
2174;DHT22;1093;51.424;11.764;2023-04-15T03:57:00;7.90;1.40
2174;DHT22;1093;51.424;11.764;2023-04-15T03:59:26;7.90;1.40
2174;DHT22;1093;51.424;11.764;2023-04-15T04:01:54;7.90;1.40
2174;DHT22;1093;51.424;11.764;2023-04-15T04:04:21;7.90;1.40
2174;DHT22;1093;51.424;11.764;2023-04-15T04:06:48;7.90;1.40
2174;DHT22;1093;51.424;11.764;2023-04-15T04:09:14;7.90;1.40
2174;DHT22;1093;51.424;11.764;2023-04-15T04:11:41;7.90;1.40
2174;DHT22;1093;51.424;11.764;2023-04-15T04:14:09;7.90;1.40
2174;DHT22;1093;51.424;11.764;2023-04-15T04:16:36;7.90;1.40
2174;DHT22;1093;51.424;11.764;2023-04-15T04:19:04;7.90;1.40
2174;DHT22;1093;51.424;11.764;2023-04-15T04:21:32;7.90;1.40
2174;DHT22;1093;51.424;11.764;2023-04-15T04:23:59;7.90;1.40
2174;DHT22;1093;51.424;11.764;2023-04-15T04:26:26;7.90;1.40
2174;DHT22;1093;51.424;11.764;2023-04-15T04:28:53;7.80;1.40
2174;DHT22;1093;51.424;11.764;2023-04-15T04:31:19;7.80;1.40
2174;DHT22;1093;51.424;11.764;2023-04-15T04:33:46;7.80;1.40
2174;DHT22;1093;51.424;11.764;2023-04-15T04:36:14;7.80;1.40
2174;DHT22;1093;51.424;11.764;2023-04-15T04:38:41;7.70;1.40
2174;DHT22;1093;51.424;11.764;2023-04-15T04:41:08;7.70;1.40
2174;DHT22;1093;51.424;11.764;2023-04-15T04:43:34;7.80;1.40
2174;DHT22;1093;51.424;11.764;2023-04-15T04:46:01;7.80;1.40
2174;DHT22;1093;51.424;11.764;2023-04-15T04:48:28;7.80;1.40
2174;DHT22;1093;51.424;11.764;2023-04-15T04:50:54;7.80;1.40
2174;DHT22;1093;51.424;11.764;2023-04-15T04:53:22;7.80;1.40
2174;DHT22;1093;51.424;11.764;2023-04-15T04:55:49;7.80;1.40
2174;DHT22;1093;51.424;11.764;2023-04-15T04:58:16;7.70;1.40
2174;DHT22;1093;51.424;11.764;2023-04-15T05:00:42;7.70;1.40
2174;DHT22;1093;51.424;11.764;2023-04-15T05:03:09;7.70;1.40
2174;DHT22;1093;51.424;11.764;2023-04-15T05:05:38;7.80;1.40
2174;DHT22;1093;51.424;11.764;2023-04-15T05:08:05;7.80;1.40
2174;DHT22;1093;51.424;11.764;2023-04-15T05:10:33;7.70;1.40
2174;DHT22;1093;51.424;11.764;2023-04-15T05:13:00;7.80;1.40
2174;DHT22;1093;51.424;11.764;2023-04-15T05:15:27;7.80;1.40
2174;DHT22;1093;51.424;11.764;2023-04-15T05:17:53;7.80;1.40
2174;DHT22;1093;51.424;11.764;2023-04-15T05:20:20;7.80;1.40
2174;DHT22;1093;51.424;11.764;2023-04-15T05:22:47;7.80;1.40
2174;DHT22;1093;51.424;11.764;2023-04-15T05:25:13;7.80;1.40
2174;DHT22;1093;51.424;11.764;2023-04-15T05:27:42;7.80;1.40
2174;DHT22;1093;51.424;11.764;2023-04-15T05:30:09;7.90;1.40
2174;DHT22;1093;51.424;11.764;2023-04-15T05:32:35;7.90;1.40
2174;DHT22;1093;51.424;11.764;2023-04-15T05:35:02;7.90;1.40
2174;DHT22;1093;51.424;11.764;2023-04-15T05:37:29;7.90;1.40
2174;DHT22;1093;51.424;11.764;2023-04-15T05:39:56;7.90;1.40
2174;DHT22;1093;51.424;11.764;2023-04-15T05:42:22;7.90;1.40
2174;DHT22;1093;51.424;11.764;2023-04-15T05:44:50;7.90;1.40
2174;DHT22;1093;51.424;11.764;2023-04-15T05:47:17;7.90;1.40
2174;DHT22;1093;51.424;11.764;2023-04-15T05:49:45;7.90;1.40
2174;DHT22;1093;51.424;11.764;2023-04-15T05:52:11;7.90;1.40
2174;DHT22;1093;51.424;11.764;2023-04-15T05:54:38;7.90;1.40
2174;DHT22;1093;51.424;11.764;2023-04-15T05:57:05;7.90;1.40
2174;DHT22;1093;51.424;11.764;2023-04-15T05:59:32;7.90;1.40
2174;DHT22;1093;51.424;11.764;2023-04-15T06:02:00;7.90;1.40
2174;DHT22;1093;51.424;11.764;2023-04-15T06:04:27;7.90;1.40
2174;DHT22;1093;51.424;11.764;2023-04-15T06:06:54;7.90;1.40
2174;DHT22;1093;51.424;11.764;2023-04-15T06:09:21;8.00;1.40
2174;DHT22;1093;51.424;11.764;2023-04-15T06:11:48;8.00;1.40
2174;DHT22;1093;51.424;11.764;2023-04-15T06:14:14;8.00;1.40
2174;DHT22;1093;51.424;11.764;2023-04-15T06:16:41;8.00;1.40
2174;DHT22;1093;51.424;11.764;2023-04-15T06:19:09;7.90;1.40
2174;DHT22;1093;51.424;11.764;2023-04-15T06:21:37;8.00;1.40
2174;DHT22;1093;51.424;11.764;2023-04-15T06:24:04;8.00;1.40
2174;DHT22;1093;51.424;11.764;2023-04-15T06:26:31;8.00;1.40
2174;DHT22;1093;51.424;11.764;2023-04-15T06:28:57;8.00;1.40
2174;DHT22;1093;51.424;11.764;2023-04-15T06:31:24;8.00;1.40
2174;DHT22;1093;51.424;11.764;2023-04-15T06:33:51;8.00;1.40
2174;DHT22;1093;51.424;11.764;2023-04-15T06:36:19;8.00;1.40
2174;DHT22;1093;51.424;11.764;2023-04-15T06:38:46;8.00;1.40
2174;DHT22;1093;51.424;11.764;2023-04-15T06:41:12;8.00;1.40
2174;DHT22;1093;51.424;11.764;2023-04-15T06:43:39;8.00;1.40
2174;DHT22;1093;51.424;11.764;2023-04-15T06:46:06;8.00;1.40
2174;DHT22;1093;51.424;11.764;2023-04-15T06:48:32;8.00;1.40
2174;DHT22;1093;51.424;11.764;2023-04-15T06:50:59;8.00;1.40
2174;DHT22;1093;51.424;11.764;2023-04-15T06:53:27;8.00;1.40
2174;DHT22;1093;51.424;11.764;2023-04-15T06:55:54;8.00;1.40
2174;DHT22;1093;51.424;11.764;2023-04-15T06:58:21;8.00;1.40
2174;DHT22;1093;51.424;11.764;2023-04-15T07:00:48;8.00;1.40
2174;DHT22;1093;51.424;11.764;2023-04-15T07:03:14;8.00;1.40
2174;DHT22;1093;51.424;11.764;2023-04-15T07:05:41;8.00;1.40
2174;DHT22;1093;51.424;11.764;2023-04-15T07:08:08;8.00;1.40
2174;DHT22;1093;51.424;11.764;2023-04-15T07:10:36;8.00;1.40
2174;DHT22;1093;51.424;11.764;2023-04-15T07:13:03;8.00;1.40
2174;DHT22;1093;51.424;11.764;2023-04-15T07:15:30;8.00;1.40
2174;DHT22;1093;51.424;11.764;2023-04-15T07:17:56;8.00;1.40
2174;DHT22;1093;51.424;11.764;2023-04-15T07:20:23;8.00;1.40
2174;DHT22;1093;51.424;11.764;2023-04-15T07:22:50;8.00;1.40
2174;DHT22;1093;51.424;11.764;2023-04-15T07:25:16;8.00;1.40
2174;DHT22;1093;51.424;11.764;2023-04-15T07:27:44;8.00;1.40
2174;DHT22;1093;51.424;11.764;2023-04-15T07:30:12;8.00;1.40
2174;DHT22;1093;51.424;11.764;2023-04-15T07:32:38;8.10;1.40
2174;DHT22;1093;51.424;11.764;2023-04-15T07:35:06;8.00;1.40
2174;DHT22;1093;51.424;11.764;2023-04-15T07:37:32;8.10;1.40
2174;DHT22;1093;51.424;11.764;2023-04-15T07:39:59;8.10;1.40
2174;DHT22;1093;51.424;11.764;2023-04-15T07:42:26;8.10;1.40
2174;DHT22;1093;51.424;11.764;2023-04-15T07:44:55;8.10;1.40
2174;DHT22;1093;51.424;11.764;2023-04-15T07:47:22;8.10;1.40
2174;DHT22;1093;51.424;11.764;2023-04-15T07:49:49;8.10;1.40
2174;DHT22;1093;51.424;11.764;2023-04-15T07:52:15;8.10;1.40
2174;DHT22;1093;51.424;11.764;2023-04-15T07:54:42;8.10;1.40
2174;DHT22;1093;51.424;11.764;2023-04-15T07:57:09;8.20;1.40
2174;DHT22;1093;51.424;11.764;2023-04-15T07:59:35;8.10;1.40
2174;DHT22;1093;51.424;11.764;2023-04-15T08:02:03;8.20;1.40
2174;DHT22;1093;51.424;11.764;2023-04-15T08:04:30;8.20;1.40
2174;DHT22;1093;51.424;11.764;2023-04-15T08:06:58;8.20;1.40
2174;DHT22;1093;51.424;11.764;2023-04-15T08:09:24;8.20;1.40
2174;DHT22;1093;51.424;11.764;2023-04-15T08:11:52;8.20;1.40
2174;DHT22;1093;51.424;11.764;2023-04-15T08:14:19;8.20;1.40
2174;DHT22;1093;51.424;11.764;2023-04-15T08:16:45;8.20;1.40
2174;DHT22;1093;51.424;11.764;2023-04-15T08:19:14;8.20;1.40
2174;DHT22;1093;51.424;11.764;2023-04-15T08:21:40;8.20;1.40
2174;DHT22;1093;51.424;11.764;2023-04-15T08:24:07;8.20;1.40
2174;DHT22;1093;51.424;11.764;2023-04-15T08:26:35;8.30;1.40
2174;DHT22;1093;51.424;11.764;2023-04-15T08:29:02;8.30;1.40
2174;DHT22;1093;51.424;11.764;2023-04-15T08:31:29;8.30;1.40
2174;DHT22;1093;51.424;11.764;2023-04-15T08:33:56;8.30;1.40
2174;DHT22;1093;51.424;11.764;2023-04-15T08:36:25;8.30;1.40
2174;DHT22;1093;51.424;11.764;2023-04-15T08:38:52;8.30;1.40
2174;DHT22;1093;51.424;11.764;2023-04-15T08:41:21;8.30;1.40
2174;DHT22;1093;51.424;11.764;2023-04-15T08:43:52;8.30;1.40
2174;DHT22;1093;51.424;11.764;2023-04-15T08:46:20;8.40;1.40
2174;DHT22;1093;51.424;11.764;2023-04-15T08:48:48;8.40;1.40
2174;DHT22;1093;51.424;11.764;2023-04-15T08:51:15;8.40;1.40
2174;DHT22;1093;51.424;11.764;2023-04-15T08:53:44;8.40;1.40
2174;DHT22;1093;51.424;11.764;2023-04-15T08:56:13;8.40;1.40
2174;DHT22;1093;51.424;11.764;2023-04-15T08:58:41;8.40;1.40
2174;DHT22;1093;51.424;11.764;2023-04-15T09:01:09;8.40;1.40
2174;DHT22;1093;51.424;11.764;2023-04-15T09:03:37;8.40;1.40
2174;DHT22;1093;51.424;11.764;2023-04-15T09:06:04;8.40;1.40
2174;DHT22;1093;51.424;11.764;2023-04-15T09:08:31;8.40;1.40
2174;DHT22;1093;51.424;11.764;2023-04-15T09:11:00;8.40;1.40
2174;DHT22;1093;51.424;11.764;2023-04-15T09:13:27;8.40;1.40
2174;DHT22;1093;51.424;11.764;2023-04-15T09:15:54;8.40;1.40
2174;DHT22;1093;51.424;11.764;2023-04-15T09:18:28;8.40;1.40
2174;DHT22;1093;51.424;11.764;2023-04-15T09:20:55;8.50;1.40
2174;DHT22;1093;51.424;11.764;2023-04-15T09:23:22;8.50;1.40
2174;DHT22;1093;51.424;11.764;2023-04-15T09:25:49;8.50;1.40
2174;DHT22;1093;51.424;11.764;2023-04-15T09:28:23;8.40;1.40
2174;DHT22;1093;51.424;11.764;2023-04-15T09:30:54;8.50;1.40
2174;DHT22;1093;51.424;11.764;2023-04-15T09:33:22;8.50;1.40
2174;DHT22;1093;51.424;11.764;2023-04-15T09:35:57;8.50;1.40
2174;DHT22;1093;51.424;11.764;2023-04-15T09:38:24;8.50;1.40
2174;DHT22;1093;51.424;11.764;2023-04-15T09:40:51;8.60;1.40
2174;DHT22;1093;51.424;11.764;2023-04-15T09:43:19;8.60;1.40
2174;DHT22;1093;51.424;11.764;2023-04-15T09:45:47;8.70;1.40
2174;DHT22;1093;51.424;11.764;2023-04-15T09:48:16;8.70;1.40
2174;DHT22;1093;51.424;11.764;2023-04-15T09:50:45;8.70;1.40
2174;DHT22;1093;51.424;11.764;2023-04-15T09:53:15;8.70;1.40
2174;DHT22;1093;51.424;11.764;2023-04-15T09:55:44;8.70;1.40
2174;DHT22;1093;51.424;11.764;2023-04-15T09:58:18;8.70;1.40
2174;DHT22;1093;51.424;11.764;2023-04-15T10:00:47;8.70;1.40
2174;DHT22;1093;51.424;11.764;2023-04-15T10:03:18;8.80;1.40
2174;DHT22;1093;51.424;11.764;2023-04-15T10:05:47;8.80;1.40
2174;DHT22;1093;51.424;11.764;2023-04-15T10:08:16;8.80;1.40
2174;DHT22;1093;51.424;11.764;2023-04-15T10:10:44;8.80;1.40
2174;DHT22;1093;51.424;11.764;2023-04-15T10:13:12;8.80;1.40
2174;DHT22;1093;51.424;11.764;2023-04-15T10:15:43;8.80;1.40
2174;DHT22;1093;51.424;11.764;2023-04-15T10:18:12;8.90;1.40
2174;DHT22;1093;51.424;11.764;2023-04-15T10:20:41;8.90;1.40
2174;DHT22;1093;51.424;11.764;2023-04-15T10:23:09;8.90;1.40
2174;DHT22;1093;51.424;11.764;2023-04-15T10:25:37;8.90;1.40
2174;DHT22;1093;51.424;11.764;2023-04-15T10:28:05;8.90;1.40
2174;DHT22;1093;51.424;11.764;2023-04-15T10:30:33;9.00;1.40
2174;DHT22;1093;51.424;11.764;2023-04-15T10:33:02;9.00;1.40
2174;DHT22;1093;51.424;11.764;2023-04-15T10:35:30;9.00;1.40
2174;DHT22;1093;51.424;11.764;2023-04-15T10:37:57;9.00;1.40
2174;DHT22;1093;51.424;11.764;2023-04-15T10:40:26;9.00;1.40
2174;DHT22;1093;51.424;11.764;2023-04-15T10:42:54;9.00;1.40
2174;DHT22;1093;51.424;11.764;2023-04-15T10:45:21;9.00;1.40
2174;DHT22;1093;51.424;11.764;2023-04-15T10:47:56;9.10;1.40
2174;DHT22;1093;51.424;11.764;2023-04-15T10:50:26;9.10;1.40
2174;DHT22;1093;51.424;11.764;2023-04-15T10:52:55;9.10;1.40
2174;DHT22;1093;51.424;11.764;2023-04-15T10:55:23;9.10;1.40
2174;DHT22;1093;51.424;11.764;2023-04-15T10:57:51;9.10;1.40
2174;DHT22;1093;51.424;11.764;2023-04-15T11:00:20;9.20;1.40
2174;DHT22;1093;51.424;11.764;2023-04-15T11:02:52;9.20;1.40
2174;DHT22;1093;51.424;11.764;2023-04-15T11:05:50;9.20;1.40
2174;DHT22;1093;51.424;11.764;2023-04-15T11:08:18;9.20;1.40
2174;DHT22;1093;51.424;11.764;2023-04-15T11:10:50;9.30;1.40
2174;DHT22;1093;51.424;11.764;2023-04-15T11:13:24;9.30;1.40
2174;DHT22;1093;51.424;11.764;2023-04-15T11:16:00;9.30;1.40
2174;DHT22;1093;51.424;11.764;2023-04-15T11:18:32;9.30;1.40
2174;DHT22;1093;51.424;11.764;2023-04-15T11:21:03;9.30;1.40
2174;DHT22;1093;51.424;11.764;2023-04-15T11:23:32;9.30;1.40
2174;DHT22;1093;51.424;11.764;2023-04-15T11:26:00;9.30;1.40
2174;DHT22;1093;51.424;11.764;2023-04-15T11:28:30;9.30;1.40
2174;DHT22;1093;51.424;11.764;2023-04-15T11:30:57;9.30;1.40
2174;DHT22;1093;51.424;11.764;2023-04-15T11:33:24;9.40;1.40
2174;DHT22;1093;51.424;11.764;2023-04-15T11:35:52;9.40;1.40
2174;DHT22;1093;51.424;11.764;2023-04-15T11:38:20;9.40;1.40
2174;DHT22;1093;51.424;11.764;2023-04-15T11:40:49;9.50;1.40
2174;DHT22;1093;51.424;11.764;2023-04-15T11:43:17;9.50;1.40
2174;DHT22;1093;51.424;11.764;2023-04-15T11:45:50;9.60;1.40
2174;DHT22;1093;51.424;11.764;2023-04-15T11:48:18;9.60;1.40
2174;DHT22;1093;51.424;11.764;2023-04-15T11:50:45;9.60;1.40
2174;DHT22;1093;51.424;11.764;2023-04-15T11:53:18;9.60;1.40
2174;DHT22;1093;51.424;11.764;2023-04-15T11:55:48;9.70;1.40
2174;DHT22;1093;51.424;11.764;2023-04-15T11:58:17;9.70;1.40
2174;DHT22;1093;51.424;11.764;2023-04-15T12:00:49;9.70;1.40
2174;DHT22;1093;51.424;11.764;2023-04-15T12:03:19;9.70;1.40
2174;DHT22;1093;51.424;11.764;2023-04-15T12:06:12;9.80;1.40
2174;DHT22;1093;51.424;11.764;2023-04-15T12:09:00;9.80;1.40
2174;DHT22;1093;51.424;11.764;2023-04-15T12:11:33;9.80;1.40
2174;DHT22;1093;51.424;11.764;2023-04-15T12:14:06;9.90;1.40
2174;DHT22;1093;51.424;11.764;2023-04-15T12:16:34;9.90;1.40
2174;DHT22;1093;51.424;11.764;2023-04-15T12:19:05;9.90;1.40
2174;DHT22;1093;51.424;11.764;2023-04-15T12:21:34;10.00;1.40
2174;DHT22;1093;51.424;11.764;2023-04-15T12:24:04;10.00;1.40
2174;DHT22;1093;51.424;11.764;2023-04-15T12:26:34;10.00;1.40
2174;DHT22;1093;51.424;11.764;2023-04-15T12:29:02;10.00;1.40
2174;DHT22;1093;51.424;11.764;2023-04-15T12:31:30;10.10;1.40
2174;DHT22;1093;51.424;11.764;2023-04-15T12:33:57;10.20;1.40
2174;DHT22;1093;51.424;11.764;2023-04-15T12:36:27;10.20;1.40
2174;DHT22;1093;51.424;11.764;2023-04-15T12:38:56;10.30;1.40
2174;DHT22;1093;51.424;11.764;2023-04-15T12:41:22;10.30;1.40
2174;DHT22;1093;51.424;11.764;2023-04-15T12:43:51;10.30;1.40
2174;DHT22;1093;51.424;11.764;2023-04-15T12:46:18;10.30;1.40
2174;DHT22;1093;51.424;11.764;2023-04-15T12:48:44;10.40;1.40
2174;DHT22;1093;51.424;11.764;2023-04-15T12:51:11;10.50;1.40
2174;DHT22;1093;51.424;11.764;2023-04-15T12:53:39;10.40;1.40
2174;DHT22;1093;51.424;11.764;2023-04-15T12:56:06;10.50;1.40
2174;DHT22;1093;51.424;11.764;2023-04-15T12:58:32;10.50;1.40
2174;DHT22;1093;51.424;11.764;2023-04-15T13:01:00;10.40;1.40
2174;DHT22;1093;51.424;11.764;2023-04-15T13:03:28;10.50;1.40
2174;DHT22;1093;51.424;11.764;2023-04-15T13:05:54;10.50;1.40
2174;DHT22;1093;51.424;11.764;2023-04-15T13:08:22;10.50;1.40
2174;DHT22;1093;51.424;11.764;2023-04-15T13:10:48;10.40;1.40
2174;DHT22;1093;51.424;11.764;2023-04-15T13:13:15;10.40;1.40
2174;DHT22;1093;51.424;11.764;2023-04-15T13:15:42;10.50;1.40
2174;DHT22;1093;51.424;11.764;2023-04-15T13:18:11;10.50;1.40
2174;DHT22;1093;51.424;11.764;2023-04-15T13:20:38;10.50;1.40
2174;DHT22;1093;51.424;11.764;2023-04-15T13:23:05;10.50;1.40
2174;DHT22;1093;51.424;11.764;2023-04-15T13:25:32;10.50;1.40
2174;DHT22;1093;51.424;11.764;2023-04-15T13:27:59;10.50;1.40
2174;DHT22;1093;51.424;11.764;2023-04-15T13:30:26;10.40;1.40
2174;DHT22;1093;51.424;11.764;2023-04-15T13:32:53;10.40;1.40
2174;DHT22;1093;51.424;11.764;2023-04-15T13:35:21;10.40;1.40
2174;DHT22;1093;51.424;11.764;2023-04-15T13:37:48;10.40;1.40
2174;DHT22;1093;51.424;11.764;2023-04-15T13:40:15;10.50;1.40
2174;DHT22;1093;51.424;11.764;2023-04-15T13:42:42;10.50;1.40
2174;DHT22;1093;51.424;11.764;2023-04-15T13:45:09;10.50;1.40
2174;DHT22;1093;51.424;11.764;2023-04-15T13:47:36;10.50;1.40
2174;DHT22;1093;51.424;11.764;2023-04-15T13:50:05;10.50;1.40
2174;DHT22;1093;51.424;11.764;2023-04-15T13:52:33;10.50;1.40
2174;DHT22;1093;51.424;11.764;2023-04-15T13:55:01;10.50;1.40
2174;DHT22;1093;51.424;11.764;2023-04-15T13:57:28;10.50;1.40
2174;DHT22;1093;51.424;11.764;2023-04-15T13:59:55;10.60;1.40
2174;DHT22;1093;51.424;11.764;2023-04-15T14:02:21;10.60;1.40
2174;DHT22;1093;51.424;11.764;2023-04-15T14:04:48;10.60;1.40
2174;DHT22;1093;51.424;11.764;2023-04-15T14:07:15;10.70;1.40
2174;DHT22;1093;51.424;11.764;2023-04-15T14:09:43;10.60;1.40
2174;DHT22;1093;51.424;11.764;2023-04-15T14:12:10;10.70;1.40
2174;DHT22;1093;51.424;11.764;2023-04-15T14:14:37;10.70;1.40
2174;DHT22;1093;51.424;11.764;2023-04-15T14:17:04;10.80;1.40
2174;DHT22;1093;51.424;11.764;2023-04-15T14:19:31;10.80;1.40
2174;DHT22;1093;51.424;11.764;2023-04-15T14:21:57;10.80;1.40
2174;DHT22;1093;51.424;11.764;2023-04-15T14:24:24;10.90;1.40
2174;DHT22;1093;51.424;11.764;2023-04-15T14:26:53;10.90;1.40
2174;DHT22;1093;51.424;11.764;2023-04-15T14:29:21;11.00;1.40
2174;DHT22;1093;51.424;11.764;2023-04-15T14:31:48;11.00;1.40
2174;DHT22;1093;51.424;11.764;2023-04-15T14:34:15;11.00;1.40
2174;DHT22;1093;51.424;11.764;2023-04-15T14:36:42;11.00;1.40
2174;DHT22;1093;51.424;11.764;2023-04-15T14:39:10;10.90;1.40
2174;DHT22;1093;51.424;11.764;2023-04-15T14:41:38;10.90;1.40
2174;DHT22;1093;51.424;11.764;2023-04-15T14:44:06;11.00;1.40
2174;DHT22;1093;51.424;11.764;2023-04-15T14:46:36;11.00;1.40
2174;DHT22;1093;51.424;11.764;2023-04-15T14:49:03;11.00;1.40
2174;DHT22;1093;51.424;11.764;2023-04-15T14:51:30;11.00;1.40
2174;DHT22;1093;51.424;11.764;2023-04-15T14:53:57;11.00;1.40
2174;DHT22;1093;51.424;11.764;2023-04-15T14:56:25;11.00;1.40
2174;DHT22;1093;51.424;11.764;2023-04-15T14:58:51;11.00;1.40
2174;DHT22;1093;51.424;11.764;2023-04-15T15:01:20;11.00;1.40
2174;DHT22;1093;51.424;11.764;2023-04-15T15:03:47;11.00;1.40
2174;DHT22;1093;51.424;11.764;2023-04-15T15:06:14;11.00;1.40
2174;DHT22;1093;51.424;11.764;2023-04-15T15:08:42;11.00;1.40
2174;DHT22;1093;51.424;11.764;2023-04-15T15:11:09;11.00;1.40
2174;DHT22;1093;51.424;11.764;2023-04-15T15:13:36;11.00;1.40
2174;DHT22;1093;51.424;11.764;2023-04-15T15:16:03;10.90;1.40
2174;DHT22;1093;51.424;11.764;2023-04-15T15:18:32;11.00;1.40
2174;DHT22;1093;51.424;11.764;2023-04-15T15:20:58;11.00;1.40
2174;DHT22;1093;51.424;11.764;2023-04-15T15:23:25;11.00;1.40
2174;DHT22;1093;51.424;11.764;2023-04-15T15:25:52;11.00;1.40
2174;DHT22;1093;51.424;11.764;2023-04-15T15:28:19;11.00;1.40
2174;DHT22;1093;51.424;11.764;2023-04-15T15:30:47;11.00;1.40
2174;DHT22;1093;51.424;11.764;2023-04-15T15:33:14;10.90;1.40
2174;DHT22;1093;51.424;11.764;2023-04-15T15:35:42;11.00;1.40
2174;DHT22;1093;51.424;11.764;2023-04-15T15:38:10;11.00;1.40
2174;DHT22;1093;51.424;11.764;2023-04-15T15:40:38;11.00;1.40
2174;DHT22;1093;51.424;11.764;2023-04-15T15:43:05;11.00;1.40
2174;DHT22;1093;51.424;11.764;2023-04-15T15:45:31;11.00;1.40
2174;DHT22;1093;51.424;11.764;2023-04-15T15:47:59;11.00;1.40
2174;DHT22;1093;51.424;11.764;2023-04-15T15:50:26;11.00;1.40
2174;DHT22;1093;51.424;11.764;2023-04-15T15:52:54;11.00;1.40
2174;DHT22;1093;51.424;11.764;2023-04-15T15:55:23;11.00;1.40
2174;DHT22;1093;51.424;11.764;2023-04-15T15:57:51;11.00;1.40
2174;DHT22;1093;51.424;11.764;2023-04-15T16:00:18;11.00;1.40
2174;DHT22;1093;51.424;11.764;2023-04-15T16:02:45;11.00;1.40
2174;DHT22;1093;51.424;11.764;2023-04-15T16:05:12;10.90;1.40
2174;DHT22;1093;51.424;11.764;2023-04-15T16:07:40;11.00;1.40
2174;DHT22;1093;51.424;11.764;2023-04-15T16:10:09;11.00;1.40
2174;DHT22;1093;51.424;11.764;2023-04-15T16:12:38;11.00;1.40
2174;DHT22;1093;51.424;11.764;2023-04-15T16:15:06;11.00;1.40
2174;DHT22;1093;51.424;11.764;2023-04-15T16:17:33;11.00;1.40
2174;DHT22;1093;51.424;11.764;2023-04-15T16:20:00;11.00;1.40